createdAt,value
2017-11-15T00:00:57.495Z,0
2017-11-15T00:01:57.477Z,0
2017-11-15T00:02:57.461Z,0
2017-11-15T00:03:57.720Z,0
2017-11-15T00:04:57.425Z,0
2017-11-15T00:05:57.410Z,0
2017-11-15T00:06:57.669Z,0
2017-11-15T00:07:57.378Z,0
2017-11-15T00:08:57.361Z,0
2017-11-15T00:09:57.621Z,0
2017-11-15T00:10:57.329Z,0
2017-11-15T00:11:57.317Z,0
2017-11-15T00:12:57.296Z,0
2017-11-15T00:13:57.278Z,0
2017-11-15T00:14:57.265Z,0
2017-11-15T00:15:57.244Z,0
2017-11-15T00:16:57.228Z,0
2017-11-15T00:17:57.488Z,0
2017-11-15T00:18:57.196Z,0
2017-11-15T00:19:57.181Z,0
2017-11-15T00:20:57.440Z,0
2017-11-15T00:21:57.147Z,0
2017-11-15T00:22:57.131Z,0
2017-11-15T00:23:57.387Z,0
2017-11-15T00:24:57.099Z,0
2017-11-15T00:25:57.080Z,0
2017-11-15T00:26:57.082Z,0
2017-11-15T00:27:57.048Z,0
2017-11-15T00:28:57.032Z,0
2017-11-15T00:29:57.014Z,0
2017-11-15T00:30:57.277Z,0
2017-11-15T00:31:56.981Z,0
2017-11-15T00:32:56.967Z,0
2017-11-15T00:33:56.951Z,0
2017-11-15T00:34:57.220Z,0
2017-11-15T00:35:56.915Z,0
2017-11-15T00:36:56.901Z,0
2017-11-15T00:37:57.158Z,0
2017-11-15T00:38:56.868Z,0
2017-11-15T00:39:56.850Z,0
2017-11-15T00:40:57.131Z,0
2017-11-15T00:41:57.096Z,0
2017-11-15T00:42:57.077Z,0
2017-11-15T00:43:56.782Z,0
2017-11-15T00:44:56.767Z,0
2017-11-15T00:45:57.034Z,0
2017-11-15T00:46:56.733Z,0
2017-11-15T00:47:56.717Z,0
2017-11-15T00:48:56.992Z,0
2017-11-15T00:49:56.709Z,0
2017-11-15T00:50:56.673Z,0
2017-11-15T00:51:56.938Z,0
2017-11-15T00:52:56.635Z,0
2017-11-15T00:53:56.618Z,0
2017-11-15T00:54:56.603Z,0
2017-11-15T00:55:56.588Z,0
2017-11-15T00:56:56.850Z,0
2017-11-15T00:57:56.551Z,0
2017-11-15T00:58:56.535Z,0
2017-11-15T00:59:56.520Z,0
2017-11-15T01:00:56.504Z,0
2017-11-15T01:01:56.763Z,0
2017-11-15T01:02:56.484Z,0
2017-11-15T01:03:56.451Z,0
2017-11-15T01:04:56.720Z,0
2017-11-15T01:05:56.418Z,0
2017-11-15T01:06:56.681Z,0
2017-11-15T01:07:56.382Z,0
2017-11-15T01:08:56.371Z,0
2017-11-15T01:09:56.627Z,0
2017-11-15T01:10:56.337Z,0
2017-11-15T01:11:56.596Z,0
2017-11-15T01:12:56.302Z,0
2017-11-15T01:13:56.294Z,0
2017-11-15T01:14:56.541Z,0
2017-11-15T01:15:56.259Z,0
2017-11-15T01:16:56.513Z,0
2017-11-15T01:17:56.223Z,0
2017-11-15T01:18:56.479Z,0
2017-11-15T01:19:57.451Z,0
2017-11-15T01:20:56.449Z,0
2017-11-15T01:21:56.430Z,0
2017-11-15T01:22:56.139Z,0
2017-11-15T01:23:56.127Z,0
2017-11-15T01:24:56.118Z,0
2017-11-15T01:25:56.089Z,0
2017-11-15T01:26:56.347Z,0
2017-11-15T01:27:56.337Z,0
2017-11-15T01:28:56.040Z,0
2017-11-15T01:29:56.326Z,0
2017-11-15T01:30:56.012Z,0
2017-11-15T01:31:56.017Z,0
2017-11-15T01:32:55.978Z,0
2017-11-15T01:33:55.962Z,0
2017-11-15T01:34:55.969Z,0
2017-11-15T01:35:55.928Z,0
2017-11-15T01:36:56.189Z,0
2017-11-15T01:37:55.894Z,0
2017-11-15T01:38:55.877Z,0
2017-11-15T01:39:55.869Z,0
2017-11-15T01:40:56.123Z,0
2017-11-15T01:41:55.828Z,0
2017-11-15T01:42:55.822Z,0
2017-11-15T01:43:55.796Z,0
2017-11-15T01:44:56.055Z,0
2017-11-15T01:45:55.767Z,0
2017-11-15T01:46:55.749Z,0
2017-11-15T01:47:56.028Z,0
2017-11-15T01:48:55.713Z,0
2017-11-15T01:49:55.759Z,0
2017-11-15T01:50:55.680Z,0
2017-11-15T01:51:55.663Z,0
2017-11-15T01:52:55.665Z,0
2017-11-15T01:53:55.904Z,0
2017-11-15T01:54:55.617Z,0
2017-11-15T01:55:55.596Z,0
2017-11-15T01:56:55.581Z,0
2017-11-15T01:57:55.564Z,0
2017-11-15T01:58:55.546Z,0
2017-11-15T01:59:55.528Z,0
2017-11-15T02:00:55.515Z,0
2017-11-15T02:01:55.501Z,0
2017-11-15T02:02:55.478Z,0
2017-11-15T02:03:55.493Z,0
2017-11-15T02:04:55.747Z,0
2017-11-15T02:05:55.431Z,0
2017-11-15T02:06:55.691Z,0
2017-11-15T02:07:55.397Z,0
2017-11-15T02:08:55.684Z,0
2017-11-15T02:09:55.641Z,0
2017-11-15T02:10:55.626Z,0
2017-11-15T02:11:55.332Z,0
2017-11-15T02:12:55.610Z,0
2017-11-15T02:13:55.575Z,0
2017-11-15T02:14:55.286Z,0
2017-11-15T02:15:55.541Z,0
2017-11-15T02:16:55.253Z,0
2017-11-15T02:17:55.231Z,0
2017-11-15T02:18:55.217Z,0
2017-11-15T02:19:55.200Z,0
2017-11-15T02:20:55.183Z,0
2017-11-15T02:21:55.444Z,0
2017-11-15T02:22:55.152Z,0
2017-11-15T02:23:55.139Z,0
2017-11-15T02:24:55.396Z,0
2017-11-15T02:25:55.101Z,0
2017-11-15T02:26:55.083Z,0
2017-11-15T02:27:55.364Z,0
2017-11-15T02:28:55.051Z,0
2017-11-15T02:29:55.040Z,0
2017-11-15T02:30:55.317Z,0
2017-11-15T02:31:55.010Z,0
2017-11-15T02:32:55.263Z,0
2017-11-15T02:33:54.970Z,0
2017-11-15T02:34:54.953Z,0
2017-11-15T02:35:55.212Z,0
2017-11-15T02:36:54.921Z,0
2017-11-15T02:37:54.923Z,0
2017-11-15T02:38:54.897Z,0
2017-11-15T02:39:54.869Z,0
2017-11-15T02:40:55.151Z,0
2017-11-15T02:41:54.836Z,0
2017-11-15T02:42:55.098Z,0
2017-11-15T02:43:54.814Z,0
2017-11-15T02:44:54.786Z,0
2017-11-15T02:45:54.771Z,0
2017-11-15T02:46:54.757Z,0
2017-11-15T02:47:54.735Z,0
2017-11-15T02:48:54.719Z,0
2017-11-15T02:49:54.707Z,0
2017-11-15T02:50:54.691Z,0
2017-11-15T02:51:54.675Z,0
2017-11-15T02:52:54.655Z,0
2017-11-15T02:53:54.641Z,0
2017-11-15T02:54:54.905Z,0
2017-11-15T02:55:54.635Z,0
2017-11-15T02:56:54.868Z,0
2017-11-15T02:57:54.574Z,0
2017-11-15T02:58:54.573Z,0
2017-11-15T02:59:54.549Z,0
2017-11-15T03:00:54.529Z,0
2017-11-15T03:01:54.790Z,0
2017-11-15T03:02:54.498Z,0
2017-11-15T03:03:54.773Z,0
2017-11-15T03:04:54.461Z,0
2017-11-15T03:05:54.754Z,0
2017-11-15T03:06:54.432Z,0
2017-11-15T03:07:54.427Z,0
2017-11-15T03:08:54.672Z,0
2017-11-15T03:09:54.380Z,0
2017-11-15T03:10:54.369Z,0
2017-11-15T03:11:54.353Z,0
2017-11-15T03:12:54.348Z,0
2017-11-15T03:13:54.315Z,0
2017-11-15T03:14:54.334Z,0
2017-11-15T03:15:54.569Z,0
2017-11-15T03:16:54.267Z,0
2017-11-15T03:17:54.273Z,0
2017-11-15T03:18:54.250Z,0
2017-11-15T03:19:54.219Z,0
2017-11-15T03:20:54.203Z,0
2017-11-15T03:21:54.473Z,0
2017-11-15T03:22:54.447Z,0
2017-11-15T03:23:54.168Z,0
2017-11-15T03:24:54.139Z,0
2017-11-15T03:25:54.120Z,0
2017-11-15T03:26:54.392Z,0
2017-11-15T03:27:54.099Z,0
2017-11-15T03:28:54.078Z,0
2017-11-15T03:29:54.059Z,0
2017-11-15T03:30:54.054Z,0
2017-11-15T03:31:54.302Z,0
2017-11-15T03:32:54.018Z,0
2017-11-15T03:33:53.995Z,0
2017-11-15T03:34:53.995Z,0
2017-11-15T03:35:53.976Z,0
2017-11-15T03:36:53.949Z,0
2017-11-15T03:37:54.221Z,0
2017-11-15T03:38:53.914Z,0
2017-11-15T03:39:53.903Z,0
2017-11-15T03:40:54.178Z,0
2017-11-15T03:41:53.867Z,0
2017-11-15T03:42:53.848Z,0
2017-11-15T03:43:54.111Z,0
2017-11-15T03:44:53.818Z,0
2017-11-15T03:45:53.804Z,0
2017-11-15T03:46:53.805Z,0
2017-11-15T03:47:53.770Z,0
2017-11-15T03:48:54.056Z,0
2017-11-15T03:49:54.031Z,0
2017-11-15T03:50:53.722Z,0
2017-11-15T03:51:53.744Z,0
2017-11-15T03:52:53.686Z,0
2017-11-15T03:53:53.952Z,0
2017-11-15T03:54:53.949Z,0
2017-11-15T03:55:53.639Z,0
2017-11-15T03:56:53.625Z,0
2017-11-15T03:57:53.607Z,0
2017-11-15T03:58:53.604Z,0
2017-11-15T03:59:53.575Z,0
2017-11-15T04:00:53.565Z,0
2017-11-15T04:01:53.547Z,0
2017-11-15T04:02:53.535Z,0
2017-11-15T04:03:53.821Z,0
2017-11-15T04:04:53.494Z,0
2017-11-15T04:05:53.480Z,0
2017-11-15T04:06:53.465Z,0
2017-11-15T04:07:53.445Z,0
2017-11-15T04:08:53.709Z,0
2017-11-15T04:09:53.415Z,0
2017-11-15T04:10:53.397Z,0
2017-11-15T04:11:53.662Z,0
2017-11-15T04:12:53.367Z,0
2017-11-15T04:13:53.354Z,0
2017-11-15T04:14:53.350Z,0
2017-11-15T04:15:53.595Z,0
2017-11-15T04:16:53.309Z,0
2017-11-15T04:17:53.288Z,0
2017-11-15T04:18:53.271Z,0
2017-11-15T04:19:53.255Z,0
2017-11-15T04:20:53.251Z,0
2017-11-15T04:21:53.222Z,0
2017-11-15T04:22:53.209Z,0
2017-11-15T04:23:53.488Z,0
2017-11-15T04:24:53.173Z,0
2017-11-15T04:25:53.155Z,0
2017-11-15T04:26:53.140Z,0
2017-11-15T04:27:53.126Z,0
2017-11-15T04:28:53.128Z,0
2017-11-15T04:29:53.093Z,0
2017-11-15T04:30:53.084Z,0
2017-11-15T04:31:53.343Z,0
2017-11-15T04:32:53.058Z,0
2017-11-15T04:33:53.303Z,0
2017-11-15T04:34:53.029Z,0
2017-11-15T04:35:53.019Z,0
2017-11-15T04:36:52.982Z,0
2017-11-15T04:37:52.977Z,0
2017-11-15T04:38:53.231Z,0
2017-11-15T04:39:52.934Z,0
2017-11-15T04:40:52.919Z,0
2017-11-15T04:41:52.904Z,0
2017-11-15T04:42:52.885Z,0
2017-11-15T04:43:53.145Z,0
2017-11-15T04:44:53.140Z,0
2017-11-15T04:45:52.840Z,0
2017-11-15T04:46:52.838Z,0
2017-11-15T04:47:52.806Z,0
2017-11-15T04:48:52.808Z,0
2017-11-15T04:49:53.060Z,0
2017-11-15T04:50:52.766Z,0
2017-11-15T04:51:53.030Z,0
2017-11-15T04:52:52.725Z,0
2017-11-15T04:53:52.709Z,0
2017-11-15T04:54:52.977Z,0
2017-11-15T04:55:52.959Z,0
2017-11-15T04:56:52.662Z,0
2017-11-15T04:57:52.644Z,0
2017-11-15T04:58:52.638Z,0
2017-11-15T04:59:52.615Z,0
2017-11-15T05:00:52.871Z,0
2017-11-15T05:01:52.858Z,0
2017-11-15T05:02:52.564Z,0
2017-11-15T05:03:52.826Z,0
2017-11-15T05:04:52.803Z,0
2017-11-15T05:05:52.796Z,0
2017-11-15T05:06:52.775Z,0
2017-11-15T05:07:52.487Z,0
2017-11-15T05:08:52.468Z,0
2017-11-15T05:09:52.452Z,0
2017-11-15T05:10:52.438Z,0
2017-11-15T05:11:52.711Z,0
2017-11-15T05:12:52.677Z,0
2017-11-15T05:13:52.664Z,0
2017-11-15T05:14:52.651Z,0
2017-11-15T05:15:52.356Z,0
2017-11-15T05:16:52.340Z,0
2017-11-15T05:17:52.351Z,0
2017-11-15T05:18:52.311Z,0
2017-11-15T05:19:52.569Z,0
2017-11-15T05:20:52.275Z,0
2017-11-15T05:21:52.260Z,0
2017-11-15T05:22:52.521Z,0
2017-11-15T05:23:52.506Z,0
2017-11-15T05:24:52.485Z,0
2017-11-15T05:25:52.489Z,0
2017-11-15T05:26:52.180Z,0
2017-11-15T05:27:52.444Z,0
2017-11-15T05:28:52.149Z,0
2017-11-15T05:29:52.134Z,0
2017-11-15T05:30:52.116Z,0
2017-11-15T05:31:52.382Z,0
2017-11-15T05:32:52.087Z,0
2017-11-15T05:33:52.070Z,0
2017-11-15T05:34:52.062Z,0
2017-11-15T05:35:52.333Z,0
2017-11-15T05:36:52.021Z,0
2017-11-15T05:37:52.006Z,0
2017-11-15T05:38:52.004Z,0
2017-11-15T05:39:51.974Z,0
2017-11-15T05:40:52.234Z,0
2017-11-15T05:41:51.944Z,0
2017-11-15T05:42:52.200Z,0
2017-11-15T05:43:52.193Z,0
2017-11-15T05:44:52.173Z,0
2017-11-15T05:45:51.881Z,0
2017-11-15T05:46:52.138Z,0
2017-11-15T05:47:51.846Z,0
2017-11-15T05:48:52.111Z,0
2017-11-15T05:49:51.815Z,0
2017-11-15T05:50:51.801Z,0
2017-11-15T05:51:51.784Z,0
2017-11-15T05:52:51.766Z,0
2017-11-15T05:53:51.754Z,0
2017-11-15T05:54:51.736Z,0
2017-11-15T05:55:51.720Z,0
2017-11-15T05:56:51.707Z,0
2017-11-15T05:57:51.690Z,0
2017-11-15T05:58:51.671Z,0
2017-11-15T05:59:51.659Z,0
2017-11-15T06:00:51.917Z,0
2017-11-15T06:01:51.903Z,0
2017-11-15T06:02:51.890Z,0
2017-11-15T06:03:51.892Z,0
2017-11-15T06:04:51.857Z,0
2017-11-15T06:05:51.835Z,0
2017-11-15T06:06:51.823Z,0
2017-11-15T06:07:51.530Z,0
2017-11-15T06:08:51.517Z,0
2017-11-15T06:09:51.581Z,0
2017-11-15T06:10:51.823Z,0
2017-11-15T06:11:51.469Z,0
2017-11-15T06:12:51.875Z,0
2017-11-15T06:13:51.955Z,0
2017-11-15T06:14:51.421Z,0
2017-11-15T06:15:51.700Z,0
2017-11-15T06:16:51.814Z,0
2017-11-15T06:17:51.869Z,0
2017-11-15T06:18:51.445Z,0
2017-11-15T06:19:51.760Z,0
2017-11-15T06:20:51.435Z,0
2017-11-15T06:21:51.310Z,0
2017-11-15T06:22:51.301Z,0
2017-11-15T06:23:51.398Z,0
2017-11-15T06:24:51.540Z,0
2017-11-15T06:25:51.572Z,0
2017-11-15T06:26:51.589Z,0
2017-11-15T06:27:51.689Z,0
2017-11-15T06:28:51.280Z,0
2017-11-15T06:29:51.633Z,0
2017-11-15T06:30:51.316Z,0
2017-11-15T06:31:51.437Z,0
2017-11-15T06:32:51.212Z,0
2017-11-15T06:33:51.544Z,0
2017-11-15T06:34:51.495Z,0
2017-11-15T06:35:51.464Z,0
2017-11-15T06:36:51.227Z,0
2017-11-15T06:37:51.476Z,0
2017-11-15T06:38:51.043Z,0
2017-11-15T06:39:51.027Z,0
2017-11-15T06:40:51.295Z,0
2017-11-15T06:41:51.288Z,0
2017-11-15T06:42:51.287Z,0
2017-11-15T06:43:50.963Z,0
2017-11-15T06:44:50.950Z,0
2017-11-15T06:45:50.934Z,0
2017-11-15T06:46:51.194Z,0
2017-11-15T06:47:50.902Z,0
2017-11-15T06:48:50.905Z,0
2017-11-15T06:49:51.156Z,0
2017-11-15T06:50:50.853Z,0
2017-11-15T06:51:51.121Z,0
2017-11-15T06:52:50.825Z,0
2017-11-15T06:53:50.808Z,0
2017-11-15T06:54:50.794Z,0
2017-11-15T06:55:51.073Z,0
2017-11-15T06:56:50.785Z,0
2017-11-15T06:57:50.746Z,0
2017-11-15T06:58:51.014Z,0
2017-11-15T06:59:50.990Z,0
2017-11-15T07:00:50.700Z,0
2017-11-15T07:01:50.682Z,0
2017-11-15T07:02:50.670Z,0
2017-11-15T07:03:50.930Z,0
2017-11-15T07:04:50.637Z,0
2017-11-15T07:05:50.915Z,0
2017-11-15T07:06:50.603Z,0
2017-11-15T07:07:50.589Z,0
2017-11-15T07:08:50.852Z,0
2017-11-15T07:09:50.835Z,0
2017-11-15T07:10:50.578Z,0
2017-11-15T07:11:50.528Z,0
2017-11-15T07:12:50.797Z,0
2017-11-15T07:13:50.499Z,0
2017-11-15T07:14:50.757Z,0
2017-11-15T07:15:50.481Z,0
2017-11-15T07:16:50.724Z,0
2017-11-15T07:17:50.436Z,0
2017-11-15T07:18:50.439Z,0
2017-11-15T07:19:50.403Z,0
2017-11-15T07:20:50.389Z,0
2017-11-15T07:21:50.379Z,0
2017-11-15T07:22:50.358Z,0
2017-11-15T07:23:50.623Z,0
2017-11-15T07:24:50.326Z,0
2017-11-15T07:25:50.588Z,0
2017-11-15T07:26:50.575Z,0
2017-11-15T07:27:50.558Z,0
2017-11-15T07:28:50.263Z,0
2017-11-15T07:29:50.528Z,0
2017-11-15T07:30:50.235Z,0
2017-11-15T07:31:50.495Z,0
2017-11-15T07:32:50.202Z,0
2017-11-15T07:33:50.189Z,0
2017-11-15T07:34:50.464Z,0
2017-11-15T07:35:50.157Z,0
2017-11-15T07:36:50.423Z,0
2017-11-15T07:37:50.127Z,0
2017-11-15T07:38:50.413Z,0
2017-11-15T07:39:50.097Z,0
2017-11-15T07:40:50.101Z,0
2017-11-15T07:41:50.347Z,0
2017-11-15T07:42:50.048Z,0
2017-11-15T07:43:50.337Z,0
2017-11-15T07:44:50.022Z,0
2017-11-15T07:45:50.019Z,0
2017-11-15T07:46:49.991Z,0
2017-11-15T07:47:50.249Z,0
2017-11-15T07:48:49.961Z,0
2017-11-15T07:49:50.255Z,0
2017-11-15T07:50:49.952Z,0
2017-11-15T07:51:49.915Z,0
2017-11-15T07:52:49.904Z,0
2017-11-15T07:53:50.162Z,0
2017-11-15T07:54:50.152Z,0
2017-11-15T07:55:49.855Z,0
2017-11-15T07:56:50.118Z,0
2017-11-15T07:57:49.824Z,0
2017-11-15T07:58:50.092Z,0
2017-11-15T07:59:49.806Z,0
2017-11-15T08:00:49.777Z,0
2017-11-15T08:01:49.761Z,0
2017-11-15T08:02:49.748Z,0
2017-11-15T08:03:49.743Z,0
2017-11-15T08:04:49.991Z,0
2017-11-15T08:05:49.705Z,0
2017-11-15T08:06:49.964Z,0
2017-11-15T08:07:49.671Z,0
2017-11-15T08:08:49.659Z,0
2017-11-15T08:09:49.662Z,0
2017-11-15T08:10:49.632Z,0
2017-11-15T08:11:49.617Z,0
2017-11-15T08:12:49.600Z,0
2017-11-15T08:13:49.588Z,0
2017-11-15T08:14:49.875Z,0
2017-11-15T08:15:49.557Z,0
2017-11-15T08:16:49.541Z,0
2017-11-15T08:17:49.525Z,0
2017-11-15T08:18:49.785Z,0
2017-11-15T08:19:49.778Z,0
2017-11-15T08:20:49.483Z,0
2017-11-15T08:21:49.467Z,0
2017-11-15T08:22:49.452Z,0
2017-11-15T08:23:49.447Z,0
2017-11-15T08:24:49.710Z,0
2017-11-15T08:25:49.406Z,0
2017-11-15T08:26:49.668Z,0
2017-11-15T08:27:49.376Z,0
2017-11-15T08:28:49.643Z,0
2017-11-15T08:29:49.363Z,0
2017-11-15T08:30:49.335Z,0
2017-11-15T08:31:49.325Z,0
2017-11-15T08:32:49.586Z,1.42
2017-11-15T08:33:49.571Z,4.83
2017-11-15T08:34:49.279Z,10.24
2017-11-15T08:35:49.585Z,13.09
2017-11-15T08:36:49.272Z,12.99
2017-11-15T08:37:49.236Z,10.9
2017-11-15T08:38:49.504Z,9.58
2017-11-15T08:39:49.221Z,9.48
2017-11-15T08:40:49.191Z,9.39
2017-11-15T08:41:49.177Z,8.53
2017-11-15T08:42:49.165Z,10.71
2017-11-15T08:43:49.155Z,10.14
2017-11-15T08:44:49.427Z,8.34
2017-11-15T08:45:49.122Z,6.73
2017-11-15T08:46:49.112Z,6.07
2017-11-15T08:47:49.093Z,4.83
2017-11-15T08:48:49.082Z,4.17
2017-11-15T08:49:49.340Z,4.55
2017-11-15T08:50:49.054Z,3.98
2017-11-15T08:51:49.352Z,4.27
2017-11-15T08:52:49.313Z,2.94
2017-11-15T08:53:49.009Z,2.75
2017-11-15T08:54:48.997Z,2.18
2017-11-15T08:55:49.258Z,1.14
2017-11-15T08:56:48.969Z,2.47
2017-11-15T08:57:48.953Z,4.46
2017-11-15T08:58:48.942Z,5.69
2017-11-15T08:59:48.943Z,6.83
2017-11-15T09:00:49.211Z,10.53
2017-11-15T09:01:48.898Z,11.95
2017-11-15T09:02:49.166Z,11.86
2017-11-15T09:03:49.166Z,11.47
2017-11-15T09:04:48.875Z,12.23
2017-11-15T09:05:49.120Z,11.76
2017-11-15T09:06:49.112Z,10.14
2017-11-15T09:07:48.815Z,9.2
2017-11-15T09:08:48.806Z,9.39
2017-11-15T09:09:48.787Z,7.78
2017-11-15T09:10:48.773Z,5.21
2017-11-15T09:11:48.762Z,4.27
2017-11-15T09:12:48.749Z,3.98
2017-11-15T09:13:48.753Z,3.31
2017-11-15T09:14:48.719Z,2.66
2017-11-15T09:15:48.710Z,1.7
2017-11-15T09:16:48.976Z,0.85
2017-11-15T09:17:48.956Z,2.75
2017-11-15T09:18:48.665Z,2.75
2017-11-15T09:19:48.650Z,2.66
2017-11-15T09:20:48.636Z,3.13
2017-11-15T09:21:48.903Z,5.98
2017-11-15T09:22:48.630Z,8.35
2017-11-15T09:23:48.883Z,8.44
2017-11-15T09:24:48.861Z,10.15
2017-11-15T09:25:48.852Z,9.58
2017-11-15T09:26:48.564Z,9.77
2017-11-15T09:27:48.540Z,10.91
2017-11-15T09:28:48.531Z,11.76
2017-11-15T09:29:48.518Z,14.23
2017-11-15T09:30:48.505Z,13.38
2017-11-15T09:31:48.776Z,13.57
2017-11-15T09:32:48.475Z,13.76
2017-11-15T09:33:48.462Z,14.42
2017-11-15T09:34:48.743Z,18.41
2017-11-15T09:35:48.435Z,19.35
2017-11-15T09:36:48.443Z,18.98
2017-11-15T09:37:48.410Z,19.17
2017-11-15T09:38:48.678Z,18.88
2017-11-15T09:39:48.383Z,19.73
2017-11-15T09:40:48.653Z,19.73
2017-11-15T09:41:48.357Z,19.45
2017-11-15T09:42:48.340Z,18.79
2017-11-15T09:43:48.608Z,17.93
2017-11-15T09:44:48.318Z,17.46
2017-11-15T09:45:48.580Z,16.98
2017-11-15T09:46:48.288Z,16.13
2017-11-15T09:47:48.602Z,17.36
2017-11-15T09:48:48.264Z,21.73
2017-11-15T09:49:48.248Z,24.1
2017-11-15T09:50:48.234Z,23.53
2017-11-15T09:51:48.222Z,21.73
2017-11-15T09:52:48.226Z,27.04
2017-11-15T09:53:48.213Z,29.51
2017-11-15T09:54:48.184Z,29.7
2017-11-15T09:55:48.172Z,27.8
2017-11-15T09:56:48.160Z,27.61
2017-11-15T09:57:48.422Z,27.33
2017-11-15T09:58:48.130Z,27.89
2017-11-15T09:59:48.117Z,27.7
2017-11-15T10:00:48.102Z,29.51
2017-11-15T10:01:48.090Z,26.18
2017-11-15T10:02:48.362Z,27.33
2017-11-15T10:03:48.064Z,29.51
2017-11-15T10:04:48.052Z,28.66
2017-11-15T10:05:48.040Z,26.76
2017-11-15T10:06:48.316Z,24.67
2017-11-15T10:07:48.012Z,25.43
2017-11-15T10:08:48.000Z,24.48
2017-11-15T10:09:48.262Z,22.67
2017-11-15T10:10:47.972Z,24.95
2017-11-15T10:11:48.234Z,25.43
2017-11-15T10:12:47.947Z,25.52
2017-11-15T10:13:48.217Z,29.03
2017-11-15T10:14:47.919Z,26.57
2017-11-15T10:15:48.265Z,26.18
2017-11-15T10:16:48.173Z,25.62
2017-11-15T10:17:47.881Z,26.18
2017-11-15T10:18:47.867Z,26.09
2017-11-15T10:19:48.128Z,23.34
2017-11-15T10:20:47.837Z,21.25
2017-11-15T10:21:48.099Z,20.68
2017-11-15T10:22:47.817Z,19.64
2017-11-15T10:23:48.092Z,18.6
2017-11-15T10:24:47.787Z,18.12
2017-11-15T10:25:47.773Z,21.92
2017-11-15T10:26:48.042Z,20.87
2017-11-15T10:27:48.029Z,23.05
2017-11-15T10:28:47.734Z,19.64
2017-11-15T10:29:48.013Z,21.15
2017-11-15T10:30:47.991Z,23.25
2017-11-15T10:31:47.694Z,20.69
2017-11-15T10:32:47.681Z,18.32
2017-11-15T10:33:47.701Z,20.22
2017-11-15T10:34:47.652Z,17.66
2017-11-15T10:35:47.642Z,16.04
2017-11-15T10:36:47.629Z,19.84
2017-11-15T10:37:47.891Z,21.93
2017-11-15T10:38:47.603Z,22.78
2017-11-15T10:39:47.587Z,22.31
2017-11-15T10:40:47.867Z,25.54
2017-11-15T10:41:47.562Z,26.21
2017-11-15T10:42:47.550Z,24.6
2017-11-15T10:43:47.545Z,26.59
2017-11-15T10:44:47.524Z,28.78
2017-11-15T10:45:47.514Z,28.59
2017-11-15T10:46:47.499Z,26.5
2017-11-15T10:47:47.767Z,24.12
2017-11-15T10:48:47.751Z,26.88
2017-11-15T10:49:47.760Z,29.16
2017-11-15T10:50:47.451Z,26.03
2017-11-15T10:51:47.442Z,23.36
2017-11-15T10:52:47.713Z,23.36
2017-11-15T10:53:47.414Z,21.75
2017-11-15T10:54:47.400Z,21.08
2017-11-15T10:55:47.665Z,19.76
2017-11-15T10:56:47.673Z,17.57
2017-11-15T10:57:47.361Z,20.89
2017-11-15T10:58:47.351Z,22.22
2017-11-15T10:59:47.341Z,21.75
2017-11-15T11:00:47.325Z,21.47
2017-11-15T11:01:47.589Z,19.76
2017-11-15T11:02:47.305Z,20.23
2017-11-15T11:03:47.561Z,21.47
2017-11-15T11:04:47.273Z,22.99
2017-11-15T11:05:47.554Z,23.18
2017-11-15T11:06:47.528Z,24.03
2017-11-15T11:07:47.516Z,25.74
2017-11-15T11:08:47.225Z,26.78
2017-11-15T11:09:47.215Z,26.88
2017-11-15T11:10:47.491Z,25.64
2017-11-15T11:11:47.466Z,25.64
2017-11-15T11:12:47.175Z,28.78
2017-11-15T11:13:47.446Z,29.73
2017-11-15T11:14:47.159Z,30.49
2017-11-15T11:15:47.142Z,31.53
2017-11-15T11:16:47.129Z,30.4
2017-11-15T11:17:47.116Z,28.3
2017-11-15T11:18:47.107Z,30.19
2017-11-15T11:19:47.367Z,31.23
2017-11-15T11:20:47.083Z,30.09
2017-11-15T11:21:47.065Z,29.71
2017-11-15T11:22:47.054Z,28
2017-11-15T11:23:47.318Z,26.2
2017-11-15T11:24:47.028Z,27.06
2017-11-15T11:25:47.290Z,27.34
2017-11-15T11:26:47.023Z,25.54
2017-11-15T11:27:46.993Z,21.08
2017-11-15T11:28:46.978Z,19.74
2017-11-15T11:29:47.248Z,20.98
2017-11-15T11:30:46.953Z,21.83
2017-11-15T11:31:47.225Z,20.98
2017-11-15T11:32:46.927Z,21.74
2017-11-15T11:33:47.190Z,24.11
2017-11-15T11:34:46.903Z,28.29
2017-11-15T11:35:46.909Z,28.19
2017-11-15T11:36:46.879Z,25.35
2017-11-15T11:37:46.874Z,25.73
2017-11-15T11:38:47.129Z,24.87
2017-11-15T11:39:47.145Z,25.25
2017-11-15T11:40:47.121Z,25.44
2017-11-15T11:41:46.814Z,26.77
2017-11-15T11:42:47.081Z,26.39
2017-11-15T11:43:46.791Z,24.02
2017-11-15T11:44:47.068Z,20.31
2017-11-15T11:45:47.051Z,17.56
2017-11-15T11:46:46.768Z,18.32
2017-11-15T11:47:46.744Z,16.8
2017-11-15T11:48:47.004Z,13.85
2017-11-15T11:49:46.722Z,15.76
2017-11-15T11:50:46.997Z,23.16
2017-11-15T11:51:46.696Z,23.73
2017-11-15T11:52:46.954Z,21.74
2017-11-15T11:53:46.677Z,18.41
2017-11-15T11:54:46.655Z,17.66
2017-11-15T11:55:46.922Z,16.52
2017-11-15T11:56:46.905Z,14.71
2017-11-15T11:57:46.894Z,14.05
2017-11-15T11:58:46.605Z,13.29
2017-11-15T11:59:46.867Z,11.87
2017-11-15T12:00:46.577Z,11.39
2017-11-15T12:01:46.573Z,13.29
2017-11-15T12:02:46.840Z,14.05
2017-11-15T12:03:46.542Z,16.04
2017-11-15T12:04:46.527Z,15.19
2017-11-15T12:05:46.806Z,13.39
2017-11-15T12:06:46.778Z,15
2017-11-15T12:07:46.768Z,14.81
2017-11-15T12:08:46.476Z,16.61
2017-11-15T12:09:46.739Z,19.27
2017-11-15T12:10:46.450Z,18.32
2017-11-15T12:11:46.440Z,15.28
2017-11-15T12:12:46.425Z,13.39
2017-11-15T12:13:46.709Z,11.1
2017-11-15T12:14:46.400Z,10.91
2017-11-15T12:15:46.668Z,13.39
2017-11-15T12:16:46.652Z,19.65
2017-11-15T12:17:46.366Z,21.36
2017-11-15T12:18:46.631Z,20.12
2017-11-15T12:19:46.340Z,19.18
2017-11-15T12:20:46.326Z,20.98
2017-11-15T12:21:46.592Z,26.5
2017-11-15T12:22:46.301Z,30.09
2017-11-15T12:23:46.288Z,27.44
2017-11-15T12:24:46.549Z,26.58
2017-11-15T12:25:46.543Z,26.39
2017-11-15T12:26:46.253Z,27.34
2017-11-15T12:27:46.517Z,26.1
2017-11-15T12:28:46.225Z,23.35
2017-11-15T12:29:46.216Z,22.5
2017-11-15T12:30:46.482Z,23.07
2017-11-15T12:31:46.464Z,22.88
2017-11-15T12:32:46.175Z,24.77
2017-11-15T12:33:46.168Z,24.4
2017-11-15T12:34:46.151Z,27.06
2017-11-15T12:35:46.161Z,26.39
2017-11-15T12:36:46.126Z,25.82
2017-11-15T12:37:46.111Z,25.92
2017-11-15T12:38:46.101Z,22.97
2017-11-15T12:39:46.365Z,23.07
2017-11-15T12:40:46.353Z,23.45
2017-11-15T12:41:46.336Z,21.64
2017-11-15T12:42:46.050Z,21.64
2017-11-15T12:43:46.037Z,19.93
2017-11-15T12:44:46.311Z,19.84
2017-11-15T12:45:46.289Z,18.41
2017-11-15T12:46:46.278Z,18.89
2017-11-15T12:47:45.986Z,17.27
2017-11-15T12:48:45.975Z,18.51
2017-11-15T12:49:46.237Z,15.19
2017-11-15T12:50:45.946Z,16.04
2017-11-15T12:51:45.942Z,18.79
2017-11-15T12:52:45.928Z,17.18
2017-11-15T12:53:45.910Z,14.43
2017-11-15T12:54:46.192Z,16.23
2017-11-15T12:55:46.165Z,16.23
2017-11-15T12:56:45.871Z,13.85
2017-11-15T12:57:46.139Z,13.29
2017-11-15T12:58:46.145Z,14.71
2017-11-15T12:59:45.833Z,13.95
2017-11-15T13:00:45.822Z,17.18
2017-11-15T13:01:45.805Z,16.04
2017-11-15T13:02:45.797Z,14.33
2017-11-15T13:03:46.056Z,14.05
2017-11-15T13:04:45.768Z,13.85
2017-11-15T13:05:45.756Z,14.05
2017-11-15T13:06:46.024Z,14.05
2017-11-15T13:07:46.006Z,17.85
2017-11-15T13:08:45.998Z,19.74
2017-11-15T13:09:45.705Z,21.08
2017-11-15T13:10:45.708Z,21.74
2017-11-15T13:11:45.683Z,20.31
2017-11-15T13:12:45.956Z,19.27
2017-11-15T13:13:45.942Z,19.27
2017-11-15T13:14:45.657Z,20.22
2017-11-15T13:15:45.915Z,19.84
2017-11-15T13:16:45.627Z,18.32
2017-11-15T13:17:45.628Z,17.66
2017-11-15T13:18:45.592Z,16.61
2017-11-15T13:19:45.593Z,15.47
2017-11-15T13:20:45.572Z,13.48
2017-11-15T13:21:45.555Z,11.96
2017-11-15T13:22:45.542Z,11.87
2017-11-15T13:23:45.528Z,12.43
2017-11-15T13:24:45.518Z,13.57
2017-11-15T13:25:45.504Z,13.76
2017-11-15T13:26:45.491Z,15.29
2017-11-15T13:27:45.757Z,17.94
2017-11-15T13:28:45.484Z,18.23
2017-11-15T13:29:45.453Z,19.18
2017-11-15T13:30:45.720Z,18.98
2017-11-15T13:31:45.429Z,18.98
2017-11-15T13:32:45.705Z,17.66
2017-11-15T13:33:45.404Z,17.95
2017-11-15T13:34:45.395Z,19.84
2017-11-15T13:35:45.381Z,19.74
2017-11-15T13:36:45.372Z,18.41
2017-11-15T13:37:45.371Z,17.27
2017-11-15T13:38:45.619Z,17.56
2017-11-15T13:39:45.327Z,18.41
2017-11-15T13:40:45.317Z,19.46
2017-11-15T13:41:45.325Z,17.75
2017-11-15T13:42:45.295Z,15.95
2017-11-15T13:43:45.278Z,15.37
2017-11-15T13:44:45.547Z,14.05
2017-11-15T13:45:45.254Z,13.76
2017-11-15T13:46:45.527Z,12.05
2017-11-15T13:47:45.504Z,10.91
2017-11-15T13:48:45.214Z,12.05
2017-11-15T13:49:45.206Z,12.62
2017-11-15T13:50:45.466Z,11.87
2017-11-15T13:51:45.177Z,11.77
2017-11-15T13:52:45.441Z,11.77
2017-11-15T13:53:45.431Z,11.1
2017-11-15T13:54:45.139Z,11.2
2017-11-15T13:55:45.130Z,9.2
2017-11-15T13:56:45.119Z,9.01
2017-11-15T13:57:45.562Z,9.2
2017-11-15T13:58:45.089Z,9.11
2017-11-15T13:59:45.078Z,8.16
2017-11-15T14:00:45.065Z,7.78
2017-11-15T14:01:45.359Z,8.26